Time;durP1;ratioP1;P1;durP2;ratioP2;P2;SDS_P1;SDS_P2;PMS_P1;PMS_P2;Temp;Humidity;BMP_temperature;BMP_pressure;BME280_temperature;BME280_humidity;BME280_pressure;Samples;Min_cycle;Max_cycle;Signal;HPM_P1;HPM_P2
2023/10/12 07:33:22;;;;;;;12.55;5.57;;;;;;;;;;518676;28;2041;-67
2023/10/12 07:33:51;;;;;;;9.15;5.40;;;;;;;;;;517100;28;1434;-68
2023/10/12 07:34:07;;;;;;;11.20;5.57;;;;;;;;;;520277;28;1350;-68
2023/10/12 07:34:23;;;;;;;11.40;5.38;;;;;;;;;;520836;28;1411;-68
2023/10/12 07:34:39;;;;;;;9.82;5.38;;;;;;;;;;520627;28;1440;-68
2023/10/12 07:34:54;;;;;;;9.37;5.50;;;;;;;;;;521761;28;1250;-68
2023/10/12 07:35:18;;;;;;;9.57;5.55;;;;;;;;;;520869;28;1401;-68
2023/10/12 07:35:42;;;;;;;8.90;5.68;;;;;;;;;;520466;28;1203;-68
2023/10/12 07:36:16;;;;;;;7.97;5.20;;;;;;;;;;520993;28;1474;-68
2023/10/12 07:36:57;;;;;;;10.82;5.65;;;;;;;;;;521858;28;1313;-68
2023/10/12 07:37:13;;;;;;;11.18;5.63;;;;;;;;;;521838;28;1194;-68
2023/10/12 07:37:31;;;;;;;11.02;5.60;;;;;;;;;;518334;28;1926;-68
2023/10/12 07:37:46;;;;;;;12.20;6.03;;;;;;;;;;517718;28;1642;-69
2023/10/12 07:38:14;;;;;;;12.82;5.80;;;;;;;;;;527164;23;2083;-68
2023/10/12 07:38:35;;;;;;;10.25;5.60;;;;;;;;;;515611;28;1596;-67
2023/10/12 07:39:15;;;;;;;10.35;5.50;;;;;;;;;;515134;28;1487;-67
2023/10/12 07:39:42;;;;;;;9.32;5.45;;;;;;;;;;515324;28;1380;-66
2023/10/12 07:40:13;;;;;;;9.35;5.78;;;;;;;;;;517588;28;1451;-67
2023/10/12 07:40:41;;;;;;;9.85;5.70;;;;;;;;;;518621;28;1337;-67
2023/10/12 07:41:00;;;;;;;8.80;5.50;;;;;;;;;;521386;28;1888;-66
2023/10/12 07:41:15;;;;;;;7.68;5.28;;;;;;;;;;521803;28;1914;-67
2023/10/12 07:41:41;;;;;;;7.87;5.43;;;;;;;;;;519446;28;1267;-67
2023/10/12 07:42:00;;;;;;;7.32;5.13;;;;;;;;;;521434;28;1276;-67
2023/10/12 07:42:25;;;;;;;6.78;4.60;;;;;;;;;;522057;28;1189;-67
2023/10/12 07:42:45;;;;;;;8.02;4.93;;;;;;;;;;520922;28;1525;-67
2023/10/12 07:43:04;;;;;;;7.90;5.30;;;;;;;;;;520774;28;1657;-67
2023/10/12 07:43:20;;;;;;;9.35;5.38;;;;;;;;;;520933;28;1653;-66
2023/10/12 07:43:38;;;;;;;9.35;5.20;;;;;;;;;;518373;28;1542;-66
2023/10/12 07:43:54;;;;;;;8.35;5.00;;;;;;;;;;519395;28;1174;-66
2023/10/12 07:44:09;;;;;;;7.78;4.70;;;;;;;;;;515091;28;1558;-66
2023/10/12 07:44:27;;;;;;;7.67;4.63;;;;;;;;;;512417;28;1541;-66
2023/10/12 07:44:42;;;;;;;8.02;4.85;;;;;;;;;;512389;28;1796;-67
2023/10/12 07:44:59;;;;;;;8.90;5.00;;;;;;;;;;513207;28;1642;-67
2023/10/12 07:45:17;;;;;;;8.52;5.00;;;;;;;;;;512781;28;1536;-66
2023/10/12 07:45:47;;;;;;;8.27;5.10;;;;;;;;;;511762;28;1377;-66
2023/10/12 07:46:37;;;;;;;7.75;5.07;;;;;;;;;;518520;28;1829;-67
2023/10/12 07:46:56;;;;;;;7.90;5.10;;;;;;;;;;519429;28;1302;-66
2023/10/12 07:47:18;;;;;;;7.72;5.07;;;;;;;;;;518324;28;1460;-66
2023/10/12 07:47:40;;;;;;;8.70;5.10;;;;;;;;;;521469;28;1498;-67
2023/10/12 07:48:02;;;;;;;10.32;5.82;;;;;;;;;;521240;28;1629;-67
2023/10/12 07:48:31;;;;;;;9.68;5.53;;;;;;;;;;520934;28;1791;-67
2023/10/12 07:48:47;;;;;;;9.23;5.40;;;;;;;;;;521112;28;1733;-67
2023/10/12 07:49:40;;;;;;;9.32;5.32;;;;;;;;;;517355;28;1539;-66
2023/10/12 07:49:57;;;;;;;10.77;5.65;;;;;;;;;;517623;28;1322;-66
2023/10/12 07:50:14;;;;;;;11.20;5.60;;;;;;;;;;515472;28;1422;-67
2023/10/12 07:50:37;;;;;;;9.48;5.35;;;;;;;;;;515821;28;1473;-67
2023/10/12 07:50:52;;;;;;;9.40;5.20;;;;;;;;;;516225;28;1293;-67
2023/10/12 07:51:24;;;;;;;7.63;4.60;;;;;;;;;;519555;28;1559;-67
2023/10/12 07:51:59;;;;;;;8.82;5.18;;;;;;;;;;518954;28;1258;-66
2023/10/12 07:52:48;;;;;;;7.68;4.82;;;;;;;;;;521099;28;1313;-67
2023/10/12 07:53:14;;;;;;;7.03;4.63;;;;;;;;;;521201;28;1549;-67
2023/10/12 07:53:36;;;;;;;10.00;5.53;;;;;;;;;;521158;28;1613;-66
2023/10/12 07:54:09;;;;;;;9.98;5.50;;;;;;;;;;521792;28;1167;-66
2023/10/12 07:54:46;;;;;;;10.13;5.75;;;;;;;;;;521481;28;1316;-66
2023/10/12 07:55:04;;;;;;;8.73;5.50;;;;;;;;;;521421;28;1198;-67
2023/10/12 07:55:19;;;;;;;10.90;5.60;;;;;;;;;;521364;28;1165;-67
2023/10/12 07:55:41;;;;;;;12.63;5.97;;;;;;;;;;521932;28;1400;-67
2023/10/12 07:56:00;;;;;;;11.93;6.10;;;;;;;;;;520833;28;1241;-67
2023/10/12 07:56:18;;;;;;;10.90;5.85;;;;;;;;;;521994;28;1384;-67
2023/10/12 07:56:40;;;;;;;10.93;6.00;;;;;;;;;;521654;28;1337;-67
2023/10/12 07:56:55;;;;;;;10.32;5.95;;;;;;;;;;517034;28;1333;-66
2023/10/12 07:57:10;;;;;;;9.30;5.72;;;;;;;;;;517753;28;1479;-67
2023/10/12 07:57:29;;;;;;;8.67;5.60;;;;;;;;;;517536;28;1522;-66
2023/10/12 07:57:46;;;;;;;9.02;5.68;;;;;;;;;;517274;28;1417;-67
2023/10/12 07:58:02;;;;;;;11.20;5.90;;;;;;;;;;517369;28;1936;-67
2023/10/12 07:58:21;;;;;;;12.82;6.25;;;;;;;;;;515717;28;1422;-66
2023/10/12 07:58:36;;;;;;;9.98;6.07;;;;;;;;;;514504;28;1424;-67
2023/10/12 07:58:57;;;;;;;10.27;5.82;;;;;;;;;;516717;28;1249;-67
2023/10/12 07:59:16;;;;;;;12.25;6.20;;;;;;;;;;517220;28;1301;-67
2023/10/12 07:59:31;;;;;;;12.57;6.28;;;;;;;;;;519205;28;1326;-67
2023/10/12 08:00:51;;;;;;;9.67;6.03;;;;;;;;;;521776;28;1404;-67
2023/10/12 08:01:39;;;;;;;10.55;5.95;;;;;;;;;;519314;28;1905;-67
2023/10/12 08:01:50;;;;;;;9.45;6.20;;;;;;;;;;517799;28;1229;-67
2023/10/12 08:02:08;;;;;;;10.60;6.30;;;;;;;;;;517134;28;1254;-67
2023/10/12 08:03:19;;;;;;;12.20;6.18;;;;;;;;;;517681;28;1313;-67
2023/10/12 08:03:39;;;;;;;13.60;6.13;;;;;;;;;;517058;28;1329;-67
2023/10/12 08:03:58;;;;;;;11.00;6.07;;;;;;;;;;514712;28;1278;-67
2023/10/12 08:04:31;;;;;;;10.15;6.35;;;;;;;;;;518068;28;1033;-67
2023/10/12 08:04:58;;;;;;;12.07;6.10;;;;;;;;;;519584;28;1307;-67
2023/10/12 08:05:59;;;;;;;12.07;6.17;;;;;;;;;;520977;28;1483;-68
2023/10/12 08:06:15;;;;;;;10.30;5.97;;;;;;;;;;519460;28;1467;-67
2023/10/12 08:06:49;;;;;;;10.30;5.95;;;;;;;;;;518820;28;1405;-67
2023/10/12 08:07:07;;;;;;;10.45;6.20;;;;;;;;;;518597;28;1477;-67
2023/10/12 08:07:26;;;;;;;11.82;6.13;;;;;;;;;;518587;28;1317;-67
2023/10/12 08:08:33;;;;;;;11.90;6.35;;;;;;;;;;521511;28;1091;-68
2023/10/12 08:08:48;;;;;;;11.13;6.22;;;;;;;;;;521041;28;1340;-67
2023/10/12 08:09:47;;;;;;;11.13;5.80;;;;;;;;;;515353;28;1342;-67
2023/10/12 08:09:51;;;;;;;11.13;6.20;;;;;;;;;;521337;28;1403;-67
2023/10/12 08:10:09;;;;;;;12.50;6.28;;;;;;;;;;518218;28;2284;-67
2023/10/12 08:10:56;;;;;;;11.27;6.22;;;;;;;;;;520962;28;1364;-67
2023/10/12 08:11:31;;;;;;;13.55;6.30;;;;;;;;;;521479;28;1383;-67
2023/10/12 08:11:47;;;;;;;10.75;6.15;;;;;;;;;;519392;28;1138;-67
2023/10/12 08:12:23;;;;;;;9.38;6.10;;;;;;;;;;515581;28;1354;-67
2023/10/12 08:12:55;;;;;;;11.32;6.28;;;;;;;;;;515579;28;1627;-75
2023/10/12 08:13:38;;;;;;;12.95;6.72;;;;;;;;;;517126;28;2214;-76
2023/10/12 08:13:49;;;;;;;10.07;6.50;;;;;;;;;;516693;28;1222;-75
2023/10/12 08:14:39;;;;;;;11.35;6.78;;;;;;;;;;518479;28;1876;-75
2023/10/12 08:14:45;;;;;;;12.73;7.07;;;;;;;;;;518206;28;1249;-75
2023/10/12 08:15:10;;;;;;;12.73;7.17;;;;;;;;;;517257;28;1233;-75
2023/10/12 08:15:49;;;;;;;11.63;7.15;;;;;;;;;;515340;28;1335;-75
2023/10/12 08:16:04;;;;;;;11.63;7.30;;;;;;;;;;515074;28;1088;-75
2023/10/12 08:16:25;;;;;;;10.73;7.05;;;;;;;;;;513210;28;1085;-75
2023/10/12 08:16:41;;;;;;;10.57;7.03;;;;;;;;;;513322;28;1089;-75
2023/10/12 08:17:33;;;;;;;11.65;7.10;;;;;;;;;;517521;28;752;-75
2023/10/12 08:18:08;;;;;;;13.70;7.22;;;;;;;;;;517549;28;910;-75
2023/10/12 08:19:28;;;;;;;12.77;7.60;;;;;;;;;;520043;28;633;-72
2023/10/12 08:19:43;;;;;;;11.65;7.18;;;;;;;;;;518993;28;1100;-72
2023/10/12 08:20:46;;;;;;;12.93;7.50;;;;;;;;;;515825;28;689;-72
2023/10/12 08:21:01;;;;;;;14.20;7.60;;;;;;;;;;515227;28;886;-73
2023/10/12 08:21:24;;;;;;;11.77;7.67;;;;;;;;;;515777;28;1979;-73
2023/10/12 08:21:42;;;;;;;10.65;7.63;;;;;;;;;;515923;28;914;-73
2023/10/12 08:22:00;;;;;;;11.82;7.53;;;;;;;;;;519772;28;827;-72
2023/10/12 08:22:26;;;;;;;11.98;7.50;;;;;;;;;;519643;28;842;-72
2023/10/12 08:22:41;;;;;;;12.75;7.40;;;;;;;;;;519464;28;1688;-72
2023/10/12 08:23:01;;;;;;;12.63;7.40;;;;;;;;;;516784;28;1688;-72
2023/10/12 08:23:17;;;;;;;11.25;7.22;;;;;;;;;;515634;28;887;-72
2023/10/12 08:23:33;;;;;;;12.25;7.57;;;;;;;;;;513775;28;2141;-73
2023/10/12 08:23:58;;;;;;;13.17;7.67;;;;;;;;;;515519;28;796;-72
2023/10/12 08:24:36;;;;;;;15.98;8.20;;;;;;;;;;515535;28;1035;-73
2023/10/12 08:24:56;;;;;;;14.27;7.93;;;;;;;;;;517535;28;1279;-73
2023/10/12 08:25:11;;;;;;;13.02;7.32;;;;;;;;;;516043;28;1260;-73
2023/10/12 08:25:37;;;;;;;13.00;7.28;;;;;;;;;;516179;28;2071;-72
2023/10/12 08:25:57;;;;;;;12.70;7.18;;;;;;;;;;517202;28;1593;-72
2023/10/12 08:26:34;;;;;;;11.73;7.32;;;;;;;;;;523816;22;2383;-72
2023/10/12 08:27:05;;;;;;;10.83;7.07;;;;;;;;;;514183;28;656;-73
2023/10/12 08:27:20;;;;;;;10.85;7.00;;;;;;;;;;517805;28;1239;-73
2023/10/12 08:28:05;;;;;;;10.88;6.88;;;;;;;;;;517649;28;1330;-73
2023/10/12 08:28:21;;;;;;;11.57;6.95;;;;;;;;;;517774;28;1330;-72
2023/10/12 08:28:37;;;;;;;10.77;7.03;;;;;;;;;;516699;28;1796;-72
2023/10/12 08:28:55;;;;;;;11.48;7.13;;;;;;;;;;516371;28;1251;-72
2023/10/12 08:30:21;;;;;;;14.47;7.00;;;;;;;;;;515828;28;657;-73
2023/10/12 08:30:59;;;;;;;13.70;7.57;;;;;;;;;;515654;28;937;-73
2023/10/12 08:31:20;;;;;;;11.70;6.90;;;;;;;;;;515768;28;1295;-72
2023/10/12 08:31:43;;;;;;;9.85;6.53;;;;;;;;;;515795;28;1116;-73
2023/10/12 08:32:55;;;;;;;11.02;6.75;;;;;;;;;;514097;28;1072;-72
2023/10/12 08:33:48;;;;;;;10.68;6.63;;;;;;;;;;516870;28;1699;-72
2023/10/12 08:34:03;;;;;;;12.68;6.90;;;;;;;;;;517667;28;1239;-73
2023/10/12 08:36:10;;;;;;;11.63;6.40;;;;;;;;;;511447;29;1285;-73
2023/10/12 08:36:38;;;;;;;12.02;6.32;;;;;;;;;;514653;28;1107;-72
2023/10/12 08:37:20;;;;;;;11.43;6.38;;;;;;;;;;514917;28;1813;-72
2023/10/12 08:37:37;;;;;;;11.07;6.20;;;;;;;;;;517619;28;1270;-73
2023/10/12 08:38:33;;;;;;;12.35;6.47;;;;;;;;;;513669;28;1299;-73
2023/10/12 08:38:40;;;;;;;12.25;7.10;;;;;;;;;;511298;28;1262;-73
2023/10/12 08:38:56;;;;;;;13.13;7.13;;;;;;;;;;515642;28;925;-73
2023/10/12 08:39:11;;;;;;;12.65;6.80;;;;;;;;;;515830;28;843;-72
2023/10/12 08:39:37;;;;;;;12.03;6.67;;;;;;;;;;513823;28;1301;-72
2023/10/12 08:40:07;;;;;;;11.55;6.88;;;;;;;;;;513517;28;1873;-73
2023/10/12 08:40:26;;;;;;;12.60;7.00;;;;;;;;;;513831;28;1473;-72
2023/10/12 08:41:36;;;;;;;9.88;6.13;;;;;;;;;;514727;28;1256;-72
2023/10/12 08:43:06;;;;;;;10.17;6.20;;;;;;;;;;515608;28;1092;-72
2023/10/12 08:43:59;;;;;;;8.82;5.80;;;;;;;;;;516098;28;1114;-72
2023/10/12 08:44:19;;;;;;;11.00;6.35;;;;;;;;;;517983;28;866;-72
2023/10/12 08:44:35;;;;;;;10.68;6.13;;;;;;;;;;518031;28;930;-72
2023/10/12 08:44:58;;;;;;;10.10;5.90;;;;;;;;;;517783;28;1825;-72
2023/10/12 08:45:16;;;;;;;10.40;5.90;;;;;;;;;;517834;28;830;-72
2023/10/12 08:45:33;;;;;;;12.52;6.10;;;;;;;;;;517976;28;950;-72
2023/10/12 08:45:53;;;;;;;11.85;6.00;;;;;;;;;;515424;28;1294;-72
2023/10/12 08:46:10;;;;;;;9.88;5.68;;;;;;;;;;515474;28;1364;-72
2023/10/12 08:46:59;;;;;;;9.48;5.47;;;;;;;;;;515750;28;704;-73
2023/10/12 08:47:25;;;;;;;10.55;5.60;;;;;;;;;;515699;28;914;-73
2023/10/12 08:47:48;;;;;;;8.90;5.47;;;;;;;;;;514513;28;1320;-72
2023/10/12 08:48:05;;;;;;;9.95;5.72;;;;;;;;;;516429;28;1663;-71
2023/10/12 08:48:25;;;;;;;8.55;5.22;;;;;;;;;;515734;28;1360;-72
2023/10/12 08:48:53;;;;;;;7.60;4.80;;;;;;;;;;516157;28;982;-72
2023/10/12 08:49:52;;;;;;;7.78;5.55;;;;;;;;;;517587;28;1061;-72
2023/10/12 08:50:14;;;;;;;12.43;6.78;;;;;;;;;;517632;28;1068;-72
2023/10/12 08:50:58;;;;;;;10.43;6.38;;;;;;;;;;517762;28;1259;-72
2023/10/12 08:51:16;;;;;;;11.00;6.53;;;;;;;;;;517764;28;870;-72
2023/10/12 08:51:34;;;;;;;12.03;6.83;;;;;;;;;;515718;28;969;-72
2023/10/12 08:52:27;;;;;;;10.98;6.80;;;;;;;;;;515773;28;1219;-71
2023/10/12 08:52:39;;;;;;;13.10;6.85;;;;;;;;;;513553;28;1358;-72
2023/10/12 08:53:02;;;;;;;10.95;6.93;;;;;;;;;;515602;28;895;-72
2023/10/12 08:53:23;;;;;;;9.15;5.97;;;;;;;;;;515597;28;1998;-72
2023/10/12 08:53:40;;;;;;;10.55;5.90;;;;;;;;;;517339;28;1271;-73
2023/10/12 08:54:00;;;;;;;9.95;5.80;;;;;;;;;;517716;28;898;-72
2023/10/12 08:54:17;;;;;;;8.90;5.95;;;;;;;;;;517808;28;859;-73
2023/10/12 08:54:37;;;;;;;10.07;6.13;;;;;;;;;;515708;28;1416;-72
2023/10/12 08:54:58;;;;;;;11.18;6.32;;;;;;;;;;515531;28;1868;-72
2023/10/12 08:55:13;;;;;;;10.52;5.97;;;;;;;;;;512555;28;1986;-72
2023/10/12 08:55:31;;;;;;;11.13;6.00;;;;;;;;;;512883;28;1004;-72
2023/10/12 08:55:49;;;;;;;11.82;6.43;;;;;;;;;;514664;28;955;-72
2023/10/12 08:56:08;;;;;;;11.25;6.55;;;;;;;;;;515321;28;838;-72
2023/10/12 08:56:26;;;;;;;11.65;6.68;;;;;;;;;;514308;28;1793;-73
2023/10/12 08:56:45;;;;;;;10.85;6.70;;;;;;;;;;512124;28;1316;-73
2023/10/12 08:57:02;;;;;;;11.15;6.55;;;;;;;;;;513667;28;1497;-72
2023/10/12 08:57:35;;;;;;;9.63;6.03;;;;;;;;;;515672;28;1364;-73
2023/10/12 08:58:38;;;;;;;6.75;5.15;;;;;;;;;;514164;28;1387;-73
2023/10/12 08:58:57;;;;;;;9.77;5.90;;;;;;;;;;513570;28;1455;-72
2023/10/12 08:59:15;;;;;;;10.30;6.32;;;;;;;;;;514581;28;1344;-72
2023/10/12 08:59:34;;;;;;;10.18;6.38;;;;;;;;;;515275;28;1073;-73
2023/10/12 09:00:19;;;;;;;10.98;6.30;;;;;;;;;;514256;28;1731;-72
2023/10/12 09:01:31;;;;;;;9.05;5.90;;;;;;;;;;518898;28;1938;-72
2023/10/12 09:01:51;;;;;;;10.93;6.15;;;;;;;;;;518348;28;1287;-72
2023/10/12 09:02:19;;;;;;;9.50;6.15;;;;;;;;;;519478;28;1243;-72
2023/10/12 09:02:38;;;;;;;8.52;6.00;;;;;;;;;;516958;28;1163;-71
2023/10/12 09:03:00;;;;;;;10.75;6.25;;;;;;;;;;516658;28;1009;-72
2023/10/12 09:03:46;;;;;;;8.98;6.07;;;;;;;;;;516587;28;1182;-72
2023/10/12 09:04:03;;;;;;;10.93;6.53;;;;;;;;;;513364;28;1826;-72
2023/10/12 09:04:22;;;;;;;12.07;6.45;;;;;;;;;;512798;28;1290;-73
2023/10/12 09:04:39;;;;;;;12.13;6.10;;;;;;;;;;513140;28;1541;-72
2023/10/12 09:04:54;;;;;;;12.52;6.07;;;;;;;;;;514937;28;1001;-72
2023/10/12 09:05:11;;;;;;;11.63;6.13;;;;;;;;;;515867;28;1200;-72
2023/10/12 09:05:28;;;;;;;11.50;6.32;;;;;;;;;;517724;28;866;-72
2023/10/12 09:05:54;;;;;;;12.45;6.50;;;;;;;;;;516663;28;1035;-72
2023/10/12 09:06:29;;;;;;;12.65;6.30;;;;;;;;;;516929;28;1271;-73
2023/10/12 09:07:03;;;;;;;10.53;6.00;;;;;;;;;;519843;28;948;-73
2023/10/12 09:07:22;;;;;;;11.00;6.28;;;;;;;;;;519819;28;1217;-73
2023/10/12 09:07:45;;;;;;;11.90;6.50;;;;;;;;;;516773;28;1388;-73
2023/10/12 09:08:56;;;;;;;12.32;6.15;;;;;;;;;;516337;28;1844;-72
2023/10/12 09:09:26;;;;;;;10.50;6.10;;;;;;;;;;515567;28;1739;-72
2023/10/12 09:09:49;;;;;;;9.43;5.93;;;;;;;;;;514545;28;1779;-73
2023/10/12 09:10:28;;;;;;;8.82;5.60;;;;;;;;;;515536;28;1596;-72
2023/10/12 09:10:51;;;;;;;10.77;6.22;;;;;;;;;;513904;28;1186;-72
2023/10/12 09:11:34;;;;;;;11.87;6.33;;;;;;;;;;517171;28;1751;-73
2023/10/12 09:11:59;;;;;;;11.65;6.07;;;;;;;;;;515146;28;1129;-72
2023/10/12 09:12:19;;;;;;;10.25;5.90;;;;;;;;;;518889;28;1162;-72
2023/10/12 09:12:39;;;;;;;9.95;5.65;;;;;;;;;;516509;28;1159;-73
2023/10/12 09:12:54;;;;;;;8.63;5.72;;;;;;;;;;517058;28;1067;-72
2023/10/12 09:13:10;;;;;;;10.60;7.33;;;;;;;;;;514154;28;1865;-73
2023/10/12 09:13:29;;;;;;;12.57;7.97;;;;;;;;;;515724;28;1246;-72
2023/10/12 09:13:47;;;;;;;10.10;6.40;;;;;;;;;;513642;28;1142;-72
2023/10/12 09:14:11;;;;;;;8.80;6.10;;;;;;;;;;511652;29;874;-72
2023/10/12 09:14:27;;;;;;;11.38;6.28;;;;;;;;;;513750;28;1518;-73
2023/10/12 09:14:43;;;;;;;12.03;6.17;;;;;;;;;;514891;28;1802;-72
2023/10/12 09:15:01;;;;;;;13.10;6.53;;;;;;;;;;515644;28;1361;-73
2023/10/12 09:15:28;;;;;;;10.68;6.28;;;;;;;;;;516203;28;1214;-72
2023/10/12 09:15:48;;;;;;;10.43;6.10;;;;;;;;;;518621;28;977;-72
2023/10/12 09:16:10;;;;;;;10.45;6.30;;;;;;;;;;513096;28;1328;-72
2023/10/12 09:16:26;;;;;;;9.65;6.05;;;;;;;;;;514429;28;2018;-72
2023/10/12 09:16:43;;;;;;;16.60;7.95;;;;;;;;;;517004;28;930;-72
2023/10/12 09:17:03;;;;;;;40.78;18.80;;;;;;;;;;513575;28;1366;-72
2023/10/12 09:17:30;;;;;;;49.97;27.30;;;;;;;;;;513719;28;878;-73
2023/10/12 09:17:45;;;;;;;23.88;17.30;;;;;;;;;;511653;28;1244;-72
2023/10/12 09:18:09;;;;;;;18.75;11.98;;;;;;;;;;512511;28;2060;-72
2023/10/12 09:18:43;;;;;;;13.55;8.85;;;;;;;;;;509948;28;1341;-71
2023/10/12 09:18:59;;;;;;;13.18;8.45;;;;;;;;;;513570;28;978;-72
2023/10/12 09:19:31;;;;;;;14.45;8.63;;;;;;;;;;510569;28;1614;-72
2023/10/12 09:19:47;;;;;;;12.65;7.53;;;;;;;;;;511488;28;1957;-72
2023/10/12 09:21:39;;;;;;;12.18;8.65;;;;;;;;;;515518;28;743;-72
2023/10/12 09:22:03;;;;;;;12.23;8.30;;;;;;;;;;515625;28;1410;-72
2023/10/12 09:22:27;;;;;;;11.77;8.07;;;;;;;;;;513511;28;1417;-72
2023/10/12 09:22:42;;;;;;;13.27;8.65;;;;;;;;;;510395;29;967;-73
2023/10/12 09:23:03;;;;;;;13.48;8.40;;;;;;;;;;509457;29;1900;-72
2023/10/12 09:23:21;;;;;;;14.00;8.27;;;;;;;;;;507582;29;1261;-73
2023/10/12 09:24:35;;;;;;;11.35;7.47;;;;;;;;;;513585;28;728;-72
2023/10/12 09:24:51;;;;;;;12.68;7.47;;;;;;;;;;514080;28;2079;-73
2023/10/12 09:25:09;;;;;;;11.65;6.95;;;;;;;;;;513948;28;1289;-72
2023/10/12 09:25:59;;;;;;;10.82;6.60;;;;;;;;;;513414;28;1439;-72
2023/10/12 09:26:32;;;;;;;8.83;6.10;;;;;;;;;;515317;28;1868;-72
2023/10/12 09:26:55;;;;;;;9.43;6.20;;;;;;;;;;516266;28;1307;-72
2023/10/12 09:27:14;;;;;;;8.50;6.10;;;;;;;;;;515495;28;875;-72
2023/10/12 09:27:36;;;;;;;9.68;6.22;;;;;;;;;;513327;28;1666;-73
2023/10/12 09:27:55;;;;;;;9.32;6.20;;;;;;;;;;513203;28;1443;-72
2023/10/12 09:28:14;;;;;;;8.65;6.03;;;;;;;;;;511426;28;1244;-73
2023/10/12 09:28:40;;;;;;;9.40;6.28;;;;;;;;;;511387;28;1347;-73
2023/10/12 09:29:42;;;;;;;9.02;6.25;;;;;;;;;;511318;29;1462;-73
2023/10/12 09:29:57;;;;;;;12.15;7.10;;;;;;;;;;513198;28;891;-73
2023/10/12 09:30:16;;;;;;;13.87;7.80;;;;;;;;;;517435;28;1234;-73
2023/10/12 09:30:35;;;;;;;14.30;8.30;;;;;;;;;;515486;28;923;-73
2023/10/12 09:30:50;;;;;;;15.20;9.60;;;;;;;;;;515182;28;993;-73
2023/10/12 09:31:14;;;;;;;18.97;10.83;;;;;;;;;;515389;28;851;-73
2023/10/12 09:32:19;;;;;;;;;;;;;;;;;;;;;
2023/10/12 09:32:33;;;;;;;14.63;7.90;;;;;;;;;;515144;28;1152;-72
2023/10/12 09:33:11;;;;;;;14.73;9.15;;;;;;;;;;515605;28;1206;-72
2023/10/12 09:33:44;;;;;;;15.90;8.50;;;;;;;;;;515427;28;1268;-73
2023/10/12 09:34:42;;;;;;;12.10;7.90;;;;;;;;;;517530;28;914;-72
2023/10/12 09:35:19;;;;;;;12.93;7.65;;;;;;;;;;515599;28;945;-73
2023/10/12 09:35:40;;;;;;;13.27;7.90;;;;;;;;;;513367;28;1437;-72
2023/10/12 09:36:00;;;;;;;13.90;8.55;;;;;;;;;;515059;28;1374;-72
2023/10/12 09:36:19;;;;;;;12.95;8.38;;;;;;;;;;512675;28;1822;-72
2023/10/12 09:36:37;;;;;;;12.00;7.32;;;;;;;;;;513752;28;1632;-72
2023/10/12 09:36:55;;;;;;;11.75;7.40;;;;;;;;;;511524;29;993;-73
2023/10/12 09:37:17;;;;;;;12.88;7.55;;;;;;;;;;511141;28;1763;-73
2023/10/12 09:37:43;;;;;;;11.80;7.25;;;;;;;;;;511955;28;1387;-72
2023/10/12 09:38:01;;;;;;;11.80;7.03;;;;;;;;;;513259;28;1779;-72
2023/10/12 09:38:18;;;;;;;11.60;6.90;;;;;;;;;;511151;29;1813;-72
2023/10/12 09:38:38;;;;;;;10.70;6.68;;;;;;;;;;510389;28;895;-73
2023/10/12 09:38:57;;;;;;;10.98;6.55;;;;;;;;;;513455;28;907;-72
2023/10/12 09:39:14;;;;;;;10.20;6.57;;;;;;;;;;513263;28;848;-73
2023/10/12 09:39:34;;;;;;;11.52;6.70;;;;;;;;;;513016;28;1878;-73
2023/10/12 09:39:49;;;;;;;10.63;6.78;;;;;;;;;;515056;28;1038;-73
2023/10/12 09:40:23;;;;;;;11.40;6.80;;;;;;;;;;515811;28;835;-72
2023/10/12 09:40:39;;;;;;;11.45;6.50;;;;;;;;;;514201;28;1436;-73
2023/10/12 09:40:56;;;;;;;12.00;6.53;;;;;;;;;;515170;28;894;-72
2023/10/12 09:41:17;;;;;;;11.35;6.53;;;;;;;;;;514900;28;1902;-73
2023/10/12 09:41:37;;;;;;;11.15;6.82;;;;;;;;;;511431;29;919;-72
2023/10/12 09:41:55;;;;;;;11.27;6.90;;;;;;;;;;511485;29;1029;-72
2023/10/12 09:42:22;;;;;;;10.45;6.25;;;;;;;;;;511392;29;906;-72
2023/10/12 09:42:38;;;;;;;13.52;6.45;;;;;;;;;;513095;28;1089;-72
2023/10/12 09:42:59;;;;;;;14.07;6.60;;;;;;;;;;511721;28;3279;-72
2023/10/12 09:43:15;;;;;;;10.25;6.50;;;;;;;;;;510772;29;1824;-72
2023/10/12 09:43:34;;;;;;;9.57;6.07;;;;;;;;;;512754;28;1456;-72
2023/10/12 09:43:54;;;;;;;9.07;5.90;;;;;;;;;;511778;28;1246;-72
2023/10/12 09:44:11;;;;;;;10.05;5.93;;;;;;;;;;511253;29;950;-72
2023/10/12 09:44:37;;;;;;;10.93;6.45;;;;;;;;;;511432;29;1906;-72
2023/10/12 09:45:04;;;;;;;11.75;6.47;;;;;;;;;;515123;28;919;-73
2023/10/12 09:45:24;;;;;;;11.05;5.95;;;;;;;;;;515467;28;934;-72
2023/10/12 09:45:45;;;;;;;8.35;5.78;;;;;;;;;;515321;28;978;-73
2023/10/12 09:46:06;;;;;;;10.73;6.15;;;;;;;;;;517091;28;905;-72
2023/10/12 09:46:27;;;;;;;10.65;6.07;;;;;;;;;;513432;28;1021;-73
2023/10/12 09:46:49;;;;;;;9.82;5.97;;;;;;;;;;513501;28;1086;-73
2023/10/12 09:47:12;;;;;;;12.25;6.35;;;;;;;;;;513447;28;1279;-72
2023/10/12 09:47:43;;;;;;;13.75;6.57;;;;;;;;;;513496;28;1325;-72
2023/10/12 09:48:05;;;;;;;12.45;6.35;;;;;;;;;;513062;28;2110;-72
2023/10/12 09:48:27;;;;;;;10.07;6.38;;;;;;;;;;515078;28;934;-73
2023/10/12 09:48:44;;;;;;;9.80;6.07;;;;;;;;;;514864;28;1115;-72
2023/10/12 09:49:06;;;;;;;9.85;5.95;;;;;;;;;;517695;28;866;-72
2023/10/12 09:49:24;;;;;;;9.95;6.18;;;;;;;;;;515550;28;946;-72
2023/10/12 09:49:47;;;;;;;11.25;6.13;;;;;;;;;;513252;28;1347;-73
2023/10/12 09:50:13;;;;;;;10.43;6.40;;;;;;;;;;513585;28;937;-72
2023/10/12 09:50:32;;;;;;;9.15;6.28;;;;;;;;;;511789;29;938;-72
2023/10/12 09:50:50;;;;;;;8.88;6.10;;;;;;;;;;511396;28;2022;-72
2023/10/12 09:51:15;;;;;;;11.15;6.15;;;;;;;;;;511173;28;1667;-72
2023/10/12 09:51:36;;;;;;;12.27;6.68;;;;;;;;;;513065;28;1813;-71
2023/10/12 09:51:56;;;;;;;10.18;6.32;;;;;;;;;;515106;28;1078;-73
2023/10/12 09:52:13;;;;;;;9.45;6.07;;;;;;;;;;511692;28;1414;-72
2023/10/12 09:52:46;;;;;;;13.68;8.57;;;;;;;;;;512013;28;938;-72
2023/10/12 09:53:22;;;;;;;18.83;11.00;;;;;;;;;;513699;28;919;-72
2023/10/12 09:53:43;;;;;;;13.68;7.95;;;;;;;;;;513430;28;1419;-72
2023/10/12 09:54:09;;;;;;;14.20;7.20;;;;;;;;;;512943;28;1666;-73
2023/10/12 09:54:48;;;;;;;9.93;6.13;;;;;;;;;;513696;28;922;-73
2023/10/12 09:55:13;;;;;;;10.73;6.18;;;;;;;;;;513421;28;1141;-72
2023/10/12 09:55:36;;;;;;;10.77;6.18;;;;;;;;;;514071;28;1153;-72
2023/10/12 09:56:10;;;;;;;9.02;5.93;;;;;;;;;;517084;28;1141;-72
2023/10/12 09:56:44;;;;;;;11.23;5.93;;;;;;;;;;515980;28;953;-73
2023/10/12 09:57:04;;;;;;;10.10;5.95;;;;;;;;;;519599;28;950;-73
2023/10/12 09:57:23;;;;;;;10.52;5.93;;;;;;;;;;520038;28;886;-73
2023/10/12 09:57:40;;;;;;;11.50;6.10;;;;;;;;;;518643;28;1823;-73
2023/10/12 09:57:57;;;;;;;10.10;6.05;;;;;;;;;;517664;28;1283;-72
2023/10/12 09:58:22;;;;;;;9.13;5.90;;;;;;;;;;517704;28;863;-72
2023/10/12 09:58:51;;;;;;;9.52;5.80;;;;;;;;;;517741;28;919;-72
2023/10/12 09:59:13;;;;;;;11.65;6.10;;;;;;;;;;517823;28;902;-72
2023/10/12 09:59:31;;;;;;;9.18;6.10;;;;;;;;;;517693;28;882;-72
2023/10/12 09:59:52;;;;;;;8.70;5.88;;;;;;;;;;518178;28;958;-72
2023/10/12 10:00:55;;;;;;;10.48;5.82;;;;;;;;;;517889;28;1616;-73
2023/10/12 10:01:01;;;;;;;10.07;6.07;;;;;;;;;;519335;28;1118;-72
2023/10/12 10:01:20;;;;;;;11.90;6.90;;;;;;;;;;517708;28;1910;-72
2023/10/12 10:02:02;;;;;;;10.43;6.22;;;;;;;;;;513766;28;704;-72
2023/10/12 10:02:34;;;;;;;8.88;6.13;;;;;;;;;;513557;28;1607;-72
2023/10/12 10:02:55;;;;;;;12.20;8.07;;;;;;;;;;514248;28;1846;-73
2023/10/12 10:03:10;;;;;;;14.38;9.63;;;;;;;;;;516168;28;1114;-73
2023/10/12 10:03:35;;;;;;;13.63;9.40;;;;;;;;;;519653;28;1322;-72
2023/10/12 10:03:52;;;;;;;14.85;10.35;;;;;;;;;;517124;28;1516;-72
2023/10/12 10:04:45;;;;;;;14.02;8.50;;;;;;;;;;519390;28;1757;-72
2023/10/12 10:06:20;;;;;;;10.35;6.05;;;;;;;;;;519471;28;1763;-72
2023/10/12 10:06:37;;;;;;;9.38;6.05;;;;;;;;;;519948;28;968;-72
2023/10/12 10:07:36;;;;;;;9.38;6.03;;;;;;;;;;519666;28;775;-73
2023/10/12 10:07:57;;;;;;;9.52;5.80;;;;;;;;;;519720;28;938;-73
2023/10/12 10:08:17;;;;;;;9.82;5.82;;;;;;;;;;518846;28;1772;-72
2023/10/12 10:08:33;;;;;;;11.73;6.13;;;;;;;;;;519639;28;1557;-72
2023/10/12 10:09:09;;;;;;;11.30;6.40;;;;;;;;;;519638;28;1048;-73
2023/10/12 10:09:37;;;;;;;8.43;5.55;;;;;;;;;;516886;28;1598;-74
2023/10/12 10:10:00;;;;;;;10.13;5.80;;;;;;;;;;513808;28;1143;-73
2023/10/12 10:10:27;;;;;;;10.43;5.80;;;;;;;;;;516047;28;973;-73
2023/10/12 10:10:42;;;;;;;9.75;5.78;;;;;;;;;;516409;28;1100;-76
2023/10/12 10:10:58;;;;;;;8.07;5.60;;;;;;;;;;517293;28;859;-73
2023/10/12 10:11:14;;;;;;;8.10;5.60;;;;;;;;;;517801;28;1428;-73
2023/10/12 10:11:30;;;;;;;8.85;5.80;;;;;;;;;;515721;28;1244;-74
2023/10/12 10:11:57;;;;;;;9.20;5.95;;;;;;;;;;515491;28;1321;-76
2023/10/12 10:12:16;;;;;;;10.23;5.97;;;;;;;;;;515743;28;957;-76
2023/10/12 10:12:42;;;;;;;10.75;5.75;;;;;;;;;;515777;28;953;-76
2023/10/12 10:13:08;;;;;;;10.00;5.80;;;;;;;;;;515760;28;1311;-76
2023/10/12 10:13:41;;;;;;;10.48;5.93;;;;;;;;;;516852;28;1414;-74
2023/10/12 10:13:56;;;;;;;11.45;6.13;;;;;;;;;;517606;28;1253;-73
2023/10/12 10:14:20;;;;;;;11.00;6.10;;;;;;;;;;517468;28;1788;-74
2023/10/12 10:14:37;;;;;;;10.23;6.10;;;;;;;;;;516814;28;1338;-74
2023/10/12 10:14:57;;;;;;;11.80;6.28;;;;;;;;;;516518;28;1004;-74
2023/10/12 10:15:20;;;;;;;12.02;6.32;;;;;;;;;;517088;28;1517;-74
2023/10/12 10:15:55;;;;;;;8.68;5.70;;;;;;;;;;515509;28;1332;-73